sensor_id;sensor_type;location;lat;lon;timestamp;pressure;altitude;pressure_sealevel;temperature;humidity
30682;BME280;17439;48.092;11.842;2022-12-18T00:01:35;96467.44;;;-1.90;64.50
30682;BME280;17439;48.092;11.842;2022-12-18T00:04:04;96465.84;;;-1.91;64.55
30682;BME280;17439;48.092;11.842;2022-12-18T00:06:32;96473.19;;;-1.93;64.77
30682;BME280;17439;48.092;11.842;2022-12-18T00:09:00;96474.81;;;-1.92;64.68
30682;BME280;17439;48.092;11.842;2022-12-18T00:11:27;96470.31;;;-1.98;64.63
30682;BME280;17439;48.092;11.842;2022-12-18T00:13:55;96469.91;;;-1.95;64.54
30682;BME280;17439;48.092;11.842;2022-12-18T00:16:23;96468.28;;;-1.96;64.62
30682;BME280;17439;48.092;11.842;2022-12-18T00:18:53;96468.28;;;-1.96;64.46
30682;BME280;17439;48.092;11.842;2022-12-18T00:21:20;96465.63;;;-1.96;64.70
30682;BME280;17439;48.092;11.842;2022-12-18T00:23:48;96459.69;;;-1.98;64.43
30682;BME280;17439;48.092;11.842;2022-12-18T00:26:16;96451.53;;;-2.03;64.21
30682;BME280;17439;48.092;11.842;2022-12-18T00:28:44;96466.22;;;-2.01;64.78
30682;BME280;17439;48.092;11.842;2022-12-18T00:31:16;96466.66;;;-1.97;64.60
30682;BME280;17439;48.092;11.842;2022-12-18T00:33:43;96463.38;;;-1.99;64.53
30682;BME280;17439;48.092;11.842;2022-12-18T00:36:12;96462.56;;;-1.99;64.63
30682;BME280;17439;48.092;11.842;2022-12-18T00:38:40;96462.56;;;-1.99;64.88
30682;BME280;17439;48.092;11.842;2022-12-18T00:41:10;96462.56;;;-1.99;64.53
30682;BME280;17439;48.092;11.842;2022-12-18T00:43:37;96460.50;;;-1.97;64.38
30682;BME280;17439;48.092;11.842;2022-12-18T00:46:05;96466.03;;;-1.99;64.37
30682;BME280;17439;48.092;11.842;2022-12-18T00:48:32;96467.88;;;-1.99;64.27
30682;BME280;17439;48.092;11.842;2022-12-18T00:50:59;96476.66;;;-1.99;64.26
30682;BME280;17439;48.092;11.842;2022-12-18T00:53:25;96486.47;;;-1.99;64.43
30682;BME280;17439;48.092;11.842;2022-12-18T00:55:52;96489.94;;;-1.99;64.38
30682;BME280;17439;48.092;11.842;2022-12-18T00:58:18;96489.34;;;-2.01;64.67
30682;BME280;17439;48.092;11.842;2022-12-18T01:00:45;96494.66;;;-2.01;64.77
30682;BME280;17439;48.092;11.842;2022-12-18T01:03:14;96493.22;;;-2.04;64.64
30682;BME280;17439;48.092;11.842;2022-12-18T01:05:42;96489.16;;;-2.06;65.07
30682;BME280;17439;48.092;11.842;2022-12-18T01:08:10;96498.75;;;-2.05;65.20
30682;BME280;17439;48.092;11.842;2022-12-18T01:10:40;96498.53;;;-2.04;64.92
30682;BME280;17439;48.092;11.842;2022-12-18T01:13:07;96498.31;;;-2.02;64.90
30682;BME280;17439;48.092;11.842;2022-12-18T01:15:34;96492.81;;;-2.01;64.89
30682;BME280;17439;48.092;11.842;2022-12-18T01:18:01;96492.59;;;-1.99;65.17
30682;BME280;17439;48.092;11.842;2022-12-18T01:20:27;96501.63;;;-2.00;65.11
30682;BME280;17439;48.092;11.842;2022-12-18T01:22:54;96497.91;;;-1.99;65.12
30682;BME280;17439;48.092;11.842;2022-12-18T01:25:20;96500.38;;;-1.97;65.18
30682;BME280;17439;48.092;11.842;2022-12-18T01:27:49;96499.16;;;-1.95;64.85
30682;BME280;17439;48.092;11.842;2022-12-18T01:30:16;96508.97;;;-1.95;64.83
30682;BME280;17439;48.092;11.842;2022-12-18T01:32:44;96506.53;;;-1.97;65.09
30682;BME280;17439;48.092;11.842;2022-12-18T01:35:10;96513.66;;;-1.97;65.29
30682;BME280;17439;48.092;11.842;2022-12-18T01:37:37;96521.03;;;-1.99;65.51
30682;BME280;17439;48.092;11.842;2022-12-18T01:40:04;96523.28;;;-1.96;65.35
30682;BME280;17439;48.092;11.842;2022-12-18T01:42:31;96530.44;;;-1.97;65.21
30682;BME280;17439;48.092;11.842;2022-12-18T01:47:49;96550.66;;;-1.96;65.18
30682;BME280;17439;48.092;11.842;2022-12-18T01:50:23;96553.31;;;-1.96;65.03
30682;BME280;17439;48.092;11.842;2022-12-18T01:52:58;96559.28;;;-1.94;65.49
30682;BME280;17439;48.092;11.842;2022-12-18T01:55:29;96549.03;;;-1.90;65.58
30682;BME280;17439;48.092;11.842;2022-12-18T01:57:58;96553.16;;;-1.88;65.45
30682;BME280;17439;48.092;11.842;2022-12-18T02:00:26;96548.44;;;-1.86;65.58
30682;BME280;17439;48.092;11.842;2022-12-18T02:02:53;96536.56;;;-1.83;65.54
30682;BME280;17439;48.092;11.842;2022-12-18T02:05:29;96536.56;;;-1.83;64.89
30682;BME280;17439;48.092;11.842;2022-12-18T02:08:21;96546.38;;;-1.77;65.31
30682;BME280;17439;48.092;11.842;2022-12-18T02:11:05;96538.19;;;-1.75;65.04
30682;BME280;17439;48.092;11.842;2022-12-18T02:22:21;96531.25;;;-1.76;65.03
30682;BME280;17439;48.092;11.842;2022-12-18T02:25:01;96532.88;;;-1.75;64.96
30682;BME280;17439;48.092;11.842;2022-12-18T02:27:32;96534.31;;;-1.73;65.11
30682;BME280;17439;48.092;11.842;2022-12-18T02:30:01;96537.56;;;-1.71;64.79
30682;BME280;17439;48.092;11.842;2022-12-18T02:32:31;96532.47;;;-1.72;64.46
30682;BME280;17439;48.092;11.842;2022-12-18T02:35:01;96532.47;;;-1.72;64.79
30682;BME280;17439;48.092;11.842;2022-12-18T02:37:30;96518.56;;;-1.74;64.82
30682;BME280;17439;48.092;11.842;2022-12-18T02:40:00;96519.56;;;-1.75;64.76
30682;BME280;17439;48.092;11.842;2022-12-18T02:42:32;96518.16;;;-1.78;64.86
30682;BME280;17439;48.092;11.842;2022-12-18T02:45:00;96525.94;;;-1.76;64.92
30682;BME280;17439;48.092;11.842;2022-12-18T02:47:31;96529.59;;;-1.77;64.75
30682;BME280;17439;48.092;11.842;2022-12-18T02:50:07;96533.47;;;-1.80;64.84
30682;BME280;17439;48.092;11.842;2022-12-18T02:53:01;96524.50;;;-1.79;64.72
30682;BME280;17439;48.092;11.842;2022-12-18T03:01:53;96522.22;;;-1.75;64.63
30682;BME280;17439;48.092;11.842;2022-12-18T03:04:28;96515.28;;;-1.76;64.56
30682;BME280;17439;48.092;11.842;2022-12-18T03:07:01;96518.56;;;-1.74;64.66
30682;BME280;17439;48.092;11.842;2022-12-18T03:09:36;96521.22;;;-1.74;64.51
30682;BME280;17439;48.092;11.842;2022-12-18T03:12:30;96520.63;;;-1.76;64.43
30682;BME280;17439;48.092;11.842;2022-12-18T03:15:02;96526.94;;;-1.77;64.60
30682;BME280;17439;48.092;11.842;2022-12-18T03:17:32;96522.22;;;-1.75;64.76
30682;BME280;17439;48.092;11.842;2022-12-18T03:20:06;96530.41;;;-1.77;64.35
30682;BME280;17439;48.092;11.842;2022-12-18T03:22:36;96524.28;;;-1.77;64.77
30682;BME280;17439;48.092;11.842;2022-12-18T03:25:08;96527.75;;;-1.77;64.72
30682;BME280;17439;48.092;11.842;2022-12-18T03:27:40;96533.72;;;-1.75;64.79
30682;BME280;17439;48.092;11.842;2022-12-18T03:30:12;96530.22;;;-1.75;64.79
30682;BME280;17439;48.092;11.842;2022-12-18T03:32:44;96522.22;;;-1.75;64.53
30682;BME280;17439;48.092;11.842;2022-12-18T03:35:21;96516.91;;;-1.75;64.47
30682;BME280;17439;48.092;11.842;2022-12-18T03:37:49;96516.09;;;-1.76;64.68
30682;BME280;17439;48.092;11.842;2022-12-18T03:40:17;96512.84;;;-1.78;64.82
30682;BME280;17439;48.092;11.842;2022-12-18T03:42:48;96511.41;;;-1.80;64.58
30682;BME280;17439;48.092;11.842;2022-12-18T03:45:27;96514.06;;;-1.80;64.71
30682;BME280;17439;48.092;11.842;2022-12-18T03:48:07;96513.06;;;-1.79;65.08
30682;BME280;17439;48.092;11.842;2022-12-18T03:50:52;96515.72;;;-1.79;64.53
30682;BME280;17439;48.092;11.842;2022-12-18T03:53:41;96531.88;;;-1.81;64.60
30682;BME280;17439;48.092;11.842;2022-12-18T03:56:13;96524.69;;;-1.80;64.56
30682;BME280;17439;48.092;11.842;2022-12-18T03:58:43;96532.69;;;-1.80;64.93
30682;BME280;17439;48.092;11.842;2022-12-18T04:01:17;96534.94;;;-1.77;64.71
30682;BME280;17439;48.092;11.842;2022-12-18T04:03:49;96528.16;;;-1.80;64.65
30682;BME280;17439;48.092;11.842;2022-12-18T04:06:18;96523.69;;;-1.79;64.87
30682;BME280;17439;48.092;11.842;2022-12-18T04:08:46;96518.97;;;-1.77;64.93
30682;BME280;17439;48.092;11.842;2022-12-18T04:11:16;96525.94;;;-1.76;64.70
30682;BME280;17439;48.092;11.842;2022-12-18T04:13:44;96523.28;;;-1.76;64.38
30682;BME280;17439;48.092;11.842;2022-12-18T04:16:20;96527.75;;;-1.77;64.36
30682;BME280;17439;48.092;11.842;2022-12-18T04:18:51;96532.06;;;-1.76;64.48
30682;BME280;17439;48.092;11.842;2022-12-18T04:21:19;96527.75;;;-1.77;64.17
30682;BME280;17439;48.092;11.842;2022-12-18T04:23:47;96537.59;;;-1.77;64.42
30682;BME280;17439;48.092;11.842;2022-12-18T04:26:13;96545.16;;;-1.81;64.33
30682;BME280;17439;48.092;11.842;2022-12-18T04:28:59;96539.00;;;-1.82;64.49
30682;BME280;17439;48.092;11.842;2022-12-18T04:31:27;96530.44;;;-1.84;64.48
30682;BME280;17439;48.092;11.842;2022-12-18T04:33:55;96525.09;;;-1.84;64.72
30682;BME280;17439;48.092;11.842;2022-12-18T04:36:22;96519.78;;;-1.84;64.79
30682;BME280;17439;48.092;11.842;2022-12-18T04:38:49;96527.56;;;-1.82;64.90
30682;BME280;17439;48.092;11.842;2022-12-18T04:41:16;96537.38;;;-1.83;64.85
30682;BME280;17439;48.092;11.842;2022-12-18T04:43:46;96537.19;;;-1.81;65.20
30682;BME280;17439;48.092;11.842;2022-12-18T04:46:12;96533.47;;;-1.80;65.18
30682;BME280;17439;48.092;11.842;2022-12-18T04:48:40;96533.28;;;-1.78;65.13
30682;BME280;17439;48.092;11.842;2022-12-18T04:51:07;96543.50;;;-1.75;65.04
30682;BME280;17439;48.092;11.842;2022-12-18T04:53:34;96544.13;;;-1.73;64.86
30682;BME280;17439;48.092;11.842;2022-12-18T04:56:08;96550.25;;;-1.73;64.71
30682;BME280;17439;48.092;11.842;2022-12-18T04:58:36;96555.38;;;-1.71;64.82
30682;BME280;17439;48.092;11.842;2022-12-18T05:01:03;96554.13;;;-1.75;64.72
30682;BME280;17439;48.092;11.842;2022-12-18T05:03:30;96557.22;;;-1.72;64.76
30682;BME280;17439;48.092;11.842;2022-12-18T05:05:59;96567.66;;;-1.70;64.73
30682;BME280;17439;48.092;11.842;2022-12-18T05:08:26;96558.63;;;-1.69;64.89
30682;BME280;17439;48.092;11.842;2022-12-18T05:10:59;96560.50;;;-1.70;64.60
30682;BME280;17439;48.092;11.842;2022-12-18T05:13:26;96558.84;;;-1.71;64.86
30682;BME280;17439;48.092;11.842;2022-12-18T05:15:54;96557.03;;;-1.70;64.79
30682;BME280;17439;48.092;11.842;2022-12-18T05:18:22;96557.63;;;-1.68;64.39
30682;BME280;17439;48.092;11.842;2022-12-18T05:20:50;96560.50;;;-1.70;64.43
30682;BME280;17439;48.092;11.842;2022-12-18T05:23:18;96575.41;;;-1.69;64.52
30682;BME280;17439;48.092;11.842;2022-12-18T05:25:52;96585.22;;;-1.76;64.20
30682;BME280;17439;48.092;11.842;2022-12-18T05:28:20;96584.81;;;-1.73;64.64
30682;BME280;17439;48.092;11.842;2022-12-18T05:30:54;96586.03;;;-1.75;64.36
30682;BME280;17439;48.092;11.842;2022-12-18T05:33:22;96586.69;;;-1.73;64.48
30682;BME280;17439;48.092;11.842;2022-12-18T05:35:59;96581.16;;;-1.72;64.27
30682;BME280;17439;48.092;11.842;2022-12-18T05:38:27;96574.41;;;-1.74;64.22
30682;BME280;17439;48.092;11.842;2022-12-18T05:40:55;96578.28;;;-1.77;64.39
30682;BME280;17439;48.092;11.842;2022-12-18T05:43:22;96578.28;;;-1.77;64.33
30682;BME280;17439;48.092;11.842;2022-12-18T05:45:49;96582.19;;;-1.79;64.27
30682;BME280;17439;48.092;11.842;2022-12-18T05:48:16;96579.53;;;-1.79;64.27
30682;BME280;17439;48.092;11.842;2022-12-18T05:50:45;96584.41;;;-1.83;64.28
30682;BME280;17439;48.092;11.842;2022-12-18T05:53:13;96589.72;;;-1.83;64.50
30682;BME280;17439;48.092;11.842;2022-12-18T05:55:41;96588.91;;;-1.84;64.39
30682;BME280;17439;48.092;11.842;2022-12-18T05:58:08;96592.38;;;-1.90;64.14
30682;BME280;17439;48.092;11.842;2022-12-18T06:00:37;96589.31;;;-1.87;64.43
30682;BME280;17439;48.092;11.842;2022-12-18T06:03:04;96594.63;;;-1.87;64.70
30682;BME280;17439;48.092;11.842;2022-12-18T06:05:38;96602.63;;;-1.87;64.37
30682;BME280;17439;48.092;11.842;2022-12-18T06:08:05;96604.25;;;-1.86;64.78
30682;BME280;17439;48.092;11.842;2022-12-18T06:10:32;96607.53;;;-1.84;64.58
30682;BME280;17439;48.092;11.842;2022-12-18T06:12:58;96602.22;;;-1.84;64.52
30682;BME280;17439;48.092;11.842;2022-12-18T06:15:25;96605.88;;;-1.85;64.46
30682;BME280;17439;48.092;11.842;2022-12-18T06:17:52;96603.22;;;-1.85;64.53
30682;BME280;17439;48.092;11.842;2022-12-18T06:20:18;96604.06;;;-1.84;64.70
30682;BME280;17439;48.092;11.842;2022-12-18T06:22:45;96600.34;;;-1.83;64.38
30682;BME280;17439;48.092;11.842;2022-12-18T06:25:11;96611.81;;;-1.83;64.27
30682;BME280;17439;48.092;11.842;2022-12-18T06:27:38;96616.50;;;-1.85;64.33
30682;BME280;17439;48.092;11.842;2022-12-18T06:30:05;96609.16;;;-1.83;64.09
30682;BME280;17439;48.092;11.842;2022-12-18T06:32:32;96601.81;;;-1.87;64.09
30682;BME280;17439;48.092;11.842;2022-12-18T06:34:59;96607.94;;;-1.87;64.04
30682;BME280;17439;48.092;11.842;2022-12-18T06:37:25;96607.13;;;-1.87;64.21
30682;BME280;17439;48.092;11.842;2022-12-18T06:39:53;96602.22;;;-1.90;64.06
30682;BME280;17439;48.092;11.842;2022-12-18T06:42:19;96618.34;;;-1.92;64.17
30682;BME280;17439;48.092;11.842;2022-12-18T06:44:46;96607.94;;;-1.93;64.36
30682;BME280;17439;48.092;11.842;2022-12-18T06:47:12;96610.38;;;-1.92;64.56
30682;BME280;17439;48.092;11.842;2022-12-18T06:49:39;96619.16;;;-1.91;64.56
30682;BME280;17439;48.092;11.842;2022-12-18T06:52:06;96618.97;;;-1.90;64.27
30682;BME280;17439;48.092;11.842;2022-12-18T06:54:32;96623.28;;;-1.89;64.37
30682;BME280;17439;48.092;11.842;2022-12-18T06:56:59;96625.94;;;-1.89;64.43
30682;BME280;17439;48.092;11.842;2022-12-18T06:59:25;96629.41;;;-1.88;64.41
30682;BME280;17439;48.092;11.842;2022-12-18T07:01:53;96635.56;;;-1.88;64.31
30682;BME280;17439;48.092;11.842;2022-12-18T07:04:20;96637.97;;;-1.86;64.22
30682;BME280;17439;48.092;11.842;2022-12-18T07:06:49;96642.69;;;-1.88;64.15
30682;BME280;17439;48.092;11.842;2022-12-18T07:09:16;96633.91;;;-1.89;64.26
30682;BME280;17439;48.092;11.842;2022-12-18T07:11:42;96648.00;;;-1.88;64.40
30682;BME280;17439;48.092;11.842;2022-12-18T07:14:09;96651.50;;;-1.88;64.41
30682;BME280;17439;48.092;11.842;2022-12-18T07:16:35;96655.16;;;-1.89;64.43
30682;BME280;17439;48.092;11.842;2022-12-18T07:19:02;96650.66;;;-1.88;64.82
30682;BME280;17439;48.092;11.842;2022-12-18T07:21:28;96658.44;;;-1.87;64.50
30682;BME280;17439;48.092;11.842;2022-12-18T07:23:55;96660.50;;;-1.82;64.31
30682;BME280;17439;48.092;11.842;2022-12-18T07:26:22;96669.06;;;-1.80;64.11
30682;BME280;17439;48.092;11.842;2022-12-18T07:28:49;96675.22;;;-1.79;64.07
30682;BME280;17439;48.092;11.842;2022-12-18T07:31:19;96668.28;;;-1.80;63.99
30682;BME280;17439;48.092;11.842;2022-12-18T07:33:47;96681.56;;;-1.80;64.17
30682;BME280;17439;48.092;11.842;2022-12-18T07:36:14;96672.13;;;-1.83;64.09
30682;BME280;17439;48.092;11.842;2022-12-18T07:38:41;96679.09;;;-1.82;64.30
30682;BME280;17439;48.092;11.842;2022-12-18T07:41:12;96676.44;;;-1.82;63.85
30682;BME280;17439;48.092;11.842;2022-12-18T07:43:40;96685.03;;;-1.80;64.45
30682;BME280;17439;48.092;11.842;2022-12-18T07:46:08;96684.22;;;-1.80;64.36
30682;BME280;17439;48.092;11.842;2022-12-18T07:48:35;96685.66;;;-1.78;64.48
30682;BME280;17439;48.092;11.842;2022-12-18T07:51:04;96686.47;;;-1.77;64.36
30682;BME280;17439;48.092;11.842;2022-12-18T07:53:31;96688.94;;;-1.76;64.47
30682;BME280;17439;48.092;11.842;2022-12-18T07:56:00;96678.09;;;-1.74;64.62
30682;BME280;17439;48.092;11.842;2022-12-18T07:58:47;96674.03;;;-1.70;64.44
30682;BME280;17439;48.092;11.842;2022-12-18T08:01:14;96667.25;;;-1.66;64.18
30682;BME280;17439;48.092;11.842;2022-12-18T08:03:41;96682.81;;;-1.63;63.55
30682;BME280;17439;48.092;11.842;2022-12-18T08:06:09;96671.56;;;-1.65;63.45
30682;BME280;17439;48.092;11.842;2022-12-18T08:08:36;96665.59;;;-1.67;63.33
30682;BME280;17439;48.092;11.842;2022-12-18T08:11:02;96667.47;;;-1.68;63.69
30682;BME280;17439;48.092;11.842;2022-12-18T08:13:32;96662.16;;;-1.68;64.12
30682;BME280;17439;48.092;11.842;2022-12-18T08:16:06;96659.28;;;-1.66;63.57
30682;BME280;17439;48.092;11.842;2022-12-18T08:18:34;96668.69;;;-1.63;64.33
30682;BME280;17439;48.092;11.842;2022-12-18T08:21:12;96676.47;;;-1.62;63.57
30682;BME280;17439;48.092;11.842;2022-12-18T08:23:39;96685.06;;;-1.60;64.48
30682;BME280;17439;48.092;11.842;2022-12-18T08:26:09;96684.66;;;-1.57;64.38
30682;BME280;17439;48.092;11.842;2022-12-18T08:28:36;96697.56;;;-1.54;64.49
30682;BME280;17439;48.092;11.842;2022-12-18T08:31:03;96689.97;;;-1.50;64.57
30682;BME280;17439;48.092;11.842;2022-12-18T08:33:30;96694.09;;;-1.48;64.54
30682;BME280;17439;48.092;11.842;2022-12-18T08:36:00;96696.13;;;-1.43;63.94
30682;BME280;17439;48.092;11.842;2022-12-18T08:38:28;96694.88;;;-1.40;64.33
30682;BME280;17439;48.092;11.842;2022-12-18T08:41:02;96700.63;;;-1.37;63.31
30682;BME280;17439;48.092;11.842;2022-12-18T08:43:29;96700.00;;;-1.32;64.21
30682;BME280;17439;48.092;11.842;2022-12-18T08:45:56;96695.31;;;-1.30;64.18
30682;BME280;17439;48.092;11.842;2022-12-18T08:48:23;96701.84;;;-1.26;64.19
30682;BME280;17439;48.092;11.842;2022-12-18T08:50:56;96692.44;;;-1.22;63.14
30682;BME280;17439;48.092;11.842;2022-12-18T08:53:25;96698.97;;;-1.18;63.62
30682;BME280;17439;48.092;11.842;2022-12-18T08:56:02;96705.53;;;-1.14;63.73
30682;BME280;17439;48.092;11.842;2022-12-18T08:58:29;96706.97;;;-1.11;63.33
30682;BME280;17439;48.092;11.842;2022-12-18T09:01:07;96702.66;;;-1.12;62.16
30682;BME280;17439;48.092;11.842;2022-12-18T09:03:35;96698.16;;;-1.12;63.26
30682;BME280;17439;48.092;11.842;2022-12-18T09:06:02;96701.66;;;-1.11;63.55
30682;BME280;17439;48.092;11.842;2022-12-18T09:08:28;96699.00;;;-1.11;63.22
30682;BME280;17439;48.092;11.842;2022-12-18T09:10:55;96702.06;;;-1.07;63.41
30682;BME280;17439;48.092;11.842;2022-12-18T09:13:22;96710.03;;;-1.07;63.17
30682;BME280;17439;48.092;11.842;2022-12-18T09:15:51;96708.81;;;-1.05;63.29
30682;BME280;17439;48.092;11.842;2022-12-18T09:18:19;96710.22;;;-1.02;63.26
30682;BME280;17439;48.092;11.842;2022-12-18T09:20:46;96717.59;;;-0.98;63.41
30682;BME280;17439;48.092;11.842;2022-12-18T09:23:13;96714.72;;;-0.96;63.75
30682;BME280;17439;48.092;11.842;2022-12-18T09:25:39;96707.97;;;-0.92;63.71
30682;BME280;17439;48.092;11.842;2022-12-18T09:28:11;96709.41;;;-0.89;62.52
30682;BME280;17439;48.092;11.842;2022-12-18T09:30:39;96708.56;;;-0.83;63.17
30682;BME280;17439;48.092;11.842;2022-12-18T09:33:06;96700.97;;;-0.80;63.36
30682;BME280;17439;48.092;11.842;2022-12-18T09:35:40;96694.63;;;-0.79;61.65
30682;BME280;17439;48.092;11.842;2022-12-18T09:38:08;96695.22;;;-0.77;62.68
30682;BME280;17439;48.092;11.842;2022-12-18T09:40:41;96706.53;;;-0.75;62.02
30682;BME280;17439;48.092;11.842;2022-12-18T09:43:13;96706.09;;;-0.71;62.58
30682;BME280;17439;48.092;11.842;2022-12-18T09:45:44;96702.19;;;-0.69;62.39
30682;BME280;17439;48.092;11.842;2022-12-18T09:48:25;96710.56;;;-0.65;62.05
30682;BME280;17439;48.092;11.842;2022-12-18T09:50:56;96708.34;;;-0.62;62.52
30682;BME280;17439;48.092;11.842;2022-12-18T09:53:28;96706.25;;;-0.60;61.51
30682;BME280;17439;48.092;11.842;2022-12-18T09:55:57;96713.63;;;-0.55;62.97
30682;BME280;17439;48.092;11.842;2022-12-18T09:58:32;96708.91;;;-0.53;61.52
30682;BME280;17439;48.092;11.842;2022-12-18T10:01:01;96709.50;;;-0.51;62.96
30682;BME280;17439;48.092;11.842;2022-12-18T10:03:28;96694.75;;;-0.47;62.67
30682;BME280;17439;48.092;11.842;2022-12-18T10:11:40;96689.00;;;-0.44;60.51
30682;BME280;17439;48.092;11.842;2022-12-18T10:14:36;96672.00;;;-0.43;61.52
30682;BME280;17439;48.092;11.842;2022-12-18T10:20:02;96664.59;;;-0.41;61.45
30682;BME280;17439;48.092;11.842;2022-12-18T10:22:50;96659.47;;;-0.42;60.33
30682;BME280;17439;48.092;11.842;2022-12-18T10:25:29;96660.06;;;-0.40;60.71
30682;BME280;17439;48.092;11.842;2022-12-18T10:28:08;96659.91;;;-0.45;59.83
30682;BME280;17439;48.092;11.842;2022-12-18T10:30:38;96655.81;;;-0.48;61.07
30682;BME280;17439;48.092;11.842;2022-12-18T10:33:08;96663.78;;;-0.48;61.78
30682;BME280;17439;48.092;11.842;2022-12-18T10:35:36;96653.75;;;-0.46;62.19
30682;BME280;17439;48.092;11.842;2022-12-18T10:40:33;96648.00;;;-0.43;62.64
30682;BME280;17439;48.092;11.842;2022-12-18T10:43:14;96644.94;;;-0.40;62.35
30682;BME280;17439;48.092;11.842;2022-12-18T10:45:42;96652.03;;;-0.33;62.58
30682;BME280;17439;48.092;11.842;2022-12-18T10:48:21;96650.59;;;-0.29;60.81
30682;BME280;17439;48.092;11.842;2022-12-18T10:50:49;96646.50;;;-0.25;62.10
30682;BME280;17439;48.092;11.842;2022-12-18T10:53:37;96655.25;;;-0.18;62.84
30682;BME280;17439;48.092;11.842;2022-12-18T10:56:05;96659.38;;;-0.15;62.11
30682;BME280;17439;48.092;11.842;2022-12-18T10:58:37;96663.84;;;-0.09;61.13
30682;BME280;17439;48.092;11.842;2022-12-18T11:01:15;96646.59;;;-0.07;60.16
30682;BME280;17439;48.092;11.842;2022-12-18T11:06:28;96645.31;;;0.03;62.29
30682;BME280;17439;48.092;11.842;2022-12-18T11:09:07;96646.53;;;0.07;61.38
30682;BME280;17439;48.092;11.842;2022-12-18T11:11:49;96651.81;;;0.13;60.51
30682;BME280;17439;48.092;11.842;2022-12-18T11:14:25;96658.56;;;0.16;60.08
30682;BME280;17439;48.092;11.842;2022-12-18T11:16:53;96654.44;;;0.20;61.63
30682;BME280;17439;48.092;11.842;2022-12-18T11:19:41;96641.09;;;0.20;61.97
30682;BME280;17439;48.092;11.842;2022-12-18T11:22:23;96641.31;;;0.18;57.63
30682;BME280;17439;48.092;11.842;2022-12-18T11:28:01;96648.25;;;0.26;61.59
30682;BME280;17439;48.092;11.842;2022-12-18T11:30:36;96653.13;;;0.29;60.38
30682;BME280;17439;48.092;11.842;2022-12-18T11:33:04;96653.31;;;0.34;62.07
30682;BME280;17439;48.092;11.842;2022-12-18T11:35:40;96653.25;;;0.41;62.19
30682;BME280;17439;48.092;11.842;2022-12-18T11:38:31;96652.38;;;0.47;59.91
30682;BME280;17439;48.092;11.842;2022-12-18T11:43:38;96656.63;;;0.55;59.38
30682;BME280;17439;48.092;11.842;2022-12-18T11:46:16;96653.38;;;0.53;59.09
30682;BME280;17439;48.092;11.842;2022-12-18T11:49:10;96648.03;;;0.53;59.55
30682;BME280;17439;48.092;11.842;2022-12-18T11:51:48;96647.81;;;0.54;59.83
30682;BME280;17439;48.092;11.842;2022-12-18T11:54:17;96639.59;;;0.56;61.17
30682;BME280;17439;48.092;11.842;2022-12-18T11:57:10;96631.59;;;0.56;58.91
30682;BME280;17439;48.092;11.842;2022-12-18T12:12:55;96635.22;;;0.62;59.96
30682;BME280;17439;48.092;11.842;2022-12-18T12:15:54;96626.25;;;0.56;57.02
30682;BME280;17439;48.092;11.842;2022-12-18T12:21:22;96625.84;;;0.52;59.59
30682;BME280;17439;48.092;11.842;2022-12-18T12:24:03;96627.72;;;0.52;60.52
30682;BME280;17439;48.092;11.842;2022-12-18T12:26:41;96621.13;;;0.54;60.30
30682;BME280;17439;48.092;11.842;2022-12-18T12:29:26;96620.31;;;0.54;59.52
30682;BME280;17439;48.092;11.842;2022-12-18T12:32:17;96619.50;;;0.53;59.25
30682;BME280;17439;48.092;11.842;2022-12-18T12:37:38;96617.63;;;0.54;60.43
30682;BME280;17439;48.092;11.842;2022-12-18T12:40:12;96613.78;;;0.50;59.84
30682;BME280;17439;48.092;11.842;2022-12-18T12:43:10;96600.88;;;0.47;59.34
30682;BME280;17439;48.092;11.842;2022-12-18T12:45:44;96593.31;;;0.44;59.67
30682;BME280;17439;48.092;11.842;2022-12-18T12:50:48;96596.19;;;0.42;60.31
30682;BME280;17439;48.092;11.842;2022-12-18T12:53:25;96597.06;;;0.36;59.65
30682;BME280;17439;48.092;11.842;2022-12-18T12:55:53;96591.34;;;0.32;60.30
30682;BME280;17439;48.092;11.842;2022-12-18T12:58:30;96602.47;;;0.29;59.59
30682;BME280;17439;48.092;11.842;2022-12-18T13:01:34;96605.34;;;0.28;59.64
30682;BME280;17439;48.092;11.842;2022-12-18T13:07:00;96603.09;;;0.25;59.83
30682;BME280;17439;48.092;11.842;2022-12-18T13:09:32;96601.25;;;0.25;60.23
30682;BME280;17439;48.092;11.842;2022-12-18T13:12:04;96612.13;;;0.24;60.56
30682;BME280;17439;48.092;11.842;2022-12-18T13:14:39;96618.09;;;0.26;61.32
30682;BME280;17439;48.092;11.842;2022-12-18T13:17:20;96610.09;;;0.26;59.86
30682;BME280;17439;48.092;11.842;2022-12-18T13:19:51;96618.47;;;0.29;60.88
30682;BME280;17439;48.092;11.842;2022-12-18T13:22:35;96616.81;;;0.28;59.86
30682;BME280;17439;48.092;11.842;2022-12-18T13:25:03;96621.13;;;0.29;60.50
30682;BME280;17439;48.092;11.842;2022-12-18T13:28:05;96623.22;;;0.27;59.64
30682;BME280;17439;48.092;11.842;2022-12-18T13:38:39;96631.22;;;0.27;59.66
30682;BME280;17439;48.092;11.842;2022-12-18T13:43:50;96626.91;;;0.26;59.91
30682;BME280;17439;48.092;11.842;2022-12-18T13:46:30;96633.25;;;0.25;60.03
30682;BME280;17439;48.092;11.842;2022-12-18T13:51:43;96627.31;;;0.23;60.66
30682;BME280;17439;48.092;11.842;2022-12-18T13:56:46;96623.00;;;0.22;60.87
30682;BME280;17439;48.092;11.842;2022-12-18T13:59:23;96619.75;;;0.20;60.79
30682;BME280;17439;48.092;11.842;2022-12-18T14:01:57;96620.19;;;0.17;60.25
30682;BME280;17439;48.092;11.842;2022-12-18T14:04:29;96634.78;;;0.14;60.65
30682;BME280;17439;48.092;11.842;2022-12-18T14:07:15;96621.03;;;0.11;59.45
30682;BME280;17439;48.092;11.842;2022-12-18T14:09:50;96616.97;;;0.08;59.69
30682;BME280;17439;48.092;11.842;2022-12-18T14:12:30;96616.78;;;0.03;60.07
30682;BME280;17439;48.092;11.842;2022-12-18T14:14:59;96615.81;;;-0.03;59.94
30682;BME280;17439;48.092;11.842;2022-12-18T14:17:26;96611.34;;;-0.09;60.05
30682;BME280;17439;48.092;11.842;2022-12-18T14:19:53;96617.53;;;-0.15;59.99
30682;BME280;17439;48.092;11.842;2022-12-18T14:22:24;96628.22;;;-0.22;59.66
30682;BME280;17439;48.092;11.842;2022-12-18T14:27:50;96621.75;;;-0.39;60.11
30682;BME280;17439;48.092;11.842;2022-12-18T14:33:09;96631.22;;;-0.50;60.29
30682;BME280;17439;48.092;11.842;2022-12-18T14:35:43;96624.91;;;-0.56;60.54
30682;BME280;17439;48.092;11.842;2022-12-18T14:41:14;96623.31;;;-0.63;60.36